sensor_id;sensor_type;location;lat;lon;timestamp;P1;durP1;ratioP1;P2;durP2;ratioP2
78893;SDS011;68282;42.698;23.350;2023-07-31T00:02:15;5.32;;;3.25;;
78893;SDS011;68282;42.698;23.350;2023-07-31T00:04:40;4.57;;;3.70;;
78893;SDS011;68282;42.698;23.350;2023-07-31T00:07:06;3.97;;;3.38;;
78893;SDS011;68282;42.698;23.350;2023-07-31T00:09:32;4.95;;;3.35;;
78893;SDS011;68282;42.698;23.350;2023-07-31T00:11:58;4.38;;;3.53;;
78893;SDS011;68282;42.698;23.350;2023-07-31T00:14:24;4.85;;;3.63;;
78893;SDS011;68282;42.698;23.350;2023-07-31T00:16:50;4.22;;;3.35;;
78893;SDS011;68282;42.698;23.350;2023-07-31T00:19:15;4.00;;;3.38;;
78893;SDS011;68282;42.698;23.350;2023-07-31T00:21:40;4.22;;;3.15;;
78893;SDS011;68282;42.698;23.350;2023-07-31T00:24:06;4.18;;;3.10;;
78893;SDS011;68282;42.698;23.350;2023-07-31T00:26:31;4.85;;;3.42;;
78893;SDS011;68282;42.698;23.350;2023-07-31T00:28:57;4.47;;;3.45;;
78893;SDS011;68282;42.698;23.350;2023-07-31T00:31:22;4.47;;;3.58;;
78893;SDS011;68282;42.698;23.350;2023-07-31T00:33:47;5.88;;;3.25;;
78893;SDS011;68282;42.698;23.350;2023-07-31T00:36:13;4.60;;;3.47;;
78893;SDS011;68282;42.698;23.350;2023-07-31T00:38:38;5.05;;;3.53;;
78893;SDS011;68282;42.698;23.350;2023-07-31T00:41:04;4.97;;;3.75;;
78893;SDS011;68282;42.698;23.350;2023-07-31T00:43:29;6.20;;;3.55;;
78893;SDS011;68282;42.698;23.350;2023-07-31T00:45:55;6.22;;;3.88;;
78893;SDS011;68282;42.698;23.350;2023-07-31T00:48:20;4.70;;;3.78;;
78893;SDS011;68282;42.698;23.350;2023-07-31T00:50:46;5.18;;;3.78;;
78893;SDS011;68282;42.698;23.350;2023-07-31T00:53:12;5.45;;;4.35;;
78893;SDS011;68282;42.698;23.350;2023-07-31T00:55:38;6.07;;;4.43;;
78893;SDS011;68282;42.698;23.350;2023-07-31T00:58:04;5.88;;;4.18;;
78893;SDS011;68282;42.698;23.350;2023-07-31T01:00:29;6.03;;;4.13;;
78893;SDS011;68282;42.698;23.350;2023-07-31T01:02:55;5.32;;;4.68;;
78893;SDS011;68282;42.698;23.350;2023-07-31T01:05:23;6.32;;;4.72;;
78893;SDS011;68282;42.698;23.350;2023-07-31T01:10:46;6.95;;;5.70;;
78893;SDS011;68282;42.698;23.350;2023-07-31T01:13:14;9.20;;;6.25;;
78893;SDS011;68282;42.698;23.350;2023-07-31T01:15:40;9.50;;;6.80;;
78893;SDS011;68282;42.698;23.350;2023-07-31T01:18:05;8.85;;;6.93;;
78893;SDS011;68282;42.698;23.350;2023-07-31T01:20:31;10.45;;;8.00;;
78893;SDS011;68282;42.698;23.350;2023-07-31T01:29:12;10.48;;;8.48;;
78893;SDS011;68282;42.698;23.350;2023-07-31T01:31:46;11.13;;;8.77;;
78893;SDS011;68282;42.698;23.350;2023-07-31T01:34:14;10.68;;;8.25;;
78893;SDS011;68282;42.698;23.350;2023-07-31T01:36:42;11.43;;;9.93;;
78893;SDS011;68282;42.698;23.350;2023-07-31T01:39:08;13.02;;;10.27;;
78893;SDS011;68282;42.698;23.350;2023-07-31T01:41:33;14.68;;;9.32;;
78893;SDS011;68282;42.698;23.350;2023-07-31T01:43:59;13.15;;;10.55;;
78893;SDS011;68282;42.698;23.350;2023-07-31T01:46:24;16.27;;;11.35;;
78893;SDS011;68282;42.698;23.350;2023-07-31T01:48:50;12.65;;;9.80;;
78893;SDS011;68282;42.698;23.350;2023-07-31T01:51:15;13.43;;;10.95;;
78893;SDS011;68282;42.698;23.350;2023-07-31T01:53:41;17.45;;;10.88;;
78893;SDS011;68282;42.698;23.350;2023-07-31T01:56:06;13.77;;;11.35;;
78893;SDS011;68282;42.698;23.350;2023-07-31T01:58:32;15.93;;;11.43;;
78893;SDS011;68282;42.698;23.350;2023-07-31T02:00:57;15.43;;;12.65;;
78893;SDS011;68282;42.698;23.350;2023-07-31T02:03:22;16.92;;;12.57;;
78893;SDS011;68282;42.698;23.350;2023-07-31T02:05:48;16.05;;;13.85;;
78893;SDS011;68282;42.698;23.350;2023-07-31T02:08:15;19.85;;;12.73;;
78893;SDS011;68282;42.698;23.350;2023-07-31T02:10:41;15.70;;;12.52;;
78893;SDS011;68282;42.698;23.350;2023-07-31T02:13:06;17.02;;;11.90;;
78893;SDS011;68282;42.698;23.350;2023-07-31T02:15:33;18.92;;;12.65;;
78893;SDS011;68282;42.698;23.350;2023-07-31T02:17:59;16.60;;;13.23;;
78893;SDS011;68282;42.698;23.350;2023-07-31T02:20:24;16.23;;;12.70;;
78893;SDS011;68282;42.698;23.350;2023-07-31T02:22:50;15.30;;;12.50;;
78893;SDS011;68282;42.698;23.350;2023-07-31T02:25:15;17.70;;;13.15;;
78893;SDS011;68282;42.698;23.350;2023-07-31T02:27:41;16.20;;;13.57;;
78893;SDS011;68282;42.698;23.350;2023-07-31T02:30:07;17.60;;;13.15;;
78893;SDS011;68282;42.698;23.350;2023-07-31T02:32:32;17.10;;;12.85;;
78893;SDS011;68282;42.698;23.350;2023-07-31T02:34:58;19.50;;;13.65;;
78893;SDS011;68282;42.698;23.350;2023-07-31T02:37:23;18.45;;;13.88;;
78893;SDS011;68282;42.698;23.350;2023-07-31T02:39:50;16.33;;;12.25;;
78893;SDS011;68282;42.698;23.350;2023-07-31T02:42:15;17.08;;;13.07;;
78893;SDS011;68282;42.698;23.350;2023-07-31T02:44:40;16.13;;;13.60;;
78893;SDS011;68282;42.698;23.350;2023-07-31T02:47:06;17.08;;;14.10;;
78893;SDS011;68282;42.698;23.350;2023-07-31T02:49:31;20.23;;;14.07;;
78893;SDS011;68282;42.698;23.350;2023-07-31T02:51:57;19.08;;;13.95;;
78893;SDS011;68282;42.698;23.350;2023-07-31T02:54:22;17.98;;;13.98;;
78893;SDS011;68282;42.698;23.350;2023-07-31T02:56:48;16.80;;;13.57;;
78893;SDS011;68282;42.698;23.350;2023-07-31T02:59:14;17.27;;;13.65;;
78893;SDS011;68282;42.698;23.350;2023-07-31T03:01:39;19.75;;;14.75;;
78893;SDS011;68282;42.698;23.350;2023-07-31T03:04:04;19.58;;;14.77;;
78893;SDS011;68282;42.698;23.350;2023-07-31T03:06:30;21.00;;;14.85;;
78893;SDS011;68282;42.698;23.350;2023-07-31T03:08:55;21.38;;;14.73;;
78893;SDS011;68282;42.698;23.350;2023-07-31T03:11:21;17.80;;;14.40;;
78893;SDS011;68282;42.698;23.350;2023-07-31T03:13:46;18.40;;;14.20;;
78893;SDS011;68282;42.698;23.350;2023-07-31T03:16:12;18.10;;;14.38;;
78893;SDS011;68282;42.698;23.350;2023-07-31T03:18:37;18.33;;;14.75;;
78893;SDS011;68282;42.698;23.350;2023-07-31T03:21:03;19.50;;;15.50;;
78893;SDS011;68282;42.698;23.350;2023-07-31T03:23:29;22.42;;;15.32;;
78893;SDS011;68282;42.698;23.350;2023-07-31T03:25:57;20.33;;;14.93;;
78893;SDS011;68282;42.698;23.350;2023-07-31T03:30:49;19.63;;;14.48;;
78893;SDS011;68282;42.698;23.350;2023-07-31T03:33:15;20.45;;;14.23;;
78893;SDS011;68282;42.698;23.350;2023-07-31T03:35:40;20.95;;;16.10;;
78893;SDS011;68282;42.698;23.350;2023-07-31T03:38:05;20.42;;;15.30;;
78893;SDS011;68282;42.698;23.350;2023-07-31T03:40:31;20.98;;;15.52;;
78893;SDS011;68282;42.698;23.350;2023-07-31T03:42:56;21.38;;;15.27;;
78893;SDS011;68282;42.698;23.350;2023-07-31T03:45:22;20.02;;;15.23;;
78893;SDS011;68282;42.698;23.350;2023-07-31T03:47:47;19.80;;;14.63;;
78893;SDS011;68282;42.698;23.350;2023-07-31T03:50:12;21.05;;;16.30;;
78893;SDS011;68282;42.698;23.350;2023-07-31T03:52:38;22.42;;;15.35;;
78893;SDS011;68282;42.698;23.350;2023-07-31T03:55:03;20.92;;;15.60;;
78893;SDS011;68282;42.698;23.350;2023-07-31T03:57:29;20.30;;;14.90;;
78893;SDS011;68282;42.698;23.350;2023-07-31T03:59:57;20.45;;;15.13;;
78893;SDS011;68282;42.698;23.350;2023-07-31T04:02:23;20.95;;;15.35;;
78893;SDS011;68282;42.698;23.350;2023-07-31T04:04:48;19.05;;;13.65;;
78893;SDS011;68282;42.698;23.350;2023-07-31T04:07:14;20.20;;;14.82;;
78893;SDS011;68282;42.698;23.350;2023-07-31T04:09:39;21.98;;;15.20;;
78893;SDS011;68282;42.698;23.350;2023-07-31T04:12:05;20.83;;;15.35;;
78893;SDS011;68282;42.698;23.350;2023-07-31T04:14:30;21.38;;;16.05;;
78893;SDS011;68282;42.698;23.350;2023-07-31T04:16:56;19.73;;;14.80;;
78893;SDS011;68282;42.698;23.350;2023-07-31T04:19:21;23.55;;;16.50;;
78893;SDS011;68282;42.698;23.350;2023-07-31T04:21:47;23.92;;;16.50;;
78893;SDS011;68282;42.698;23.350;2023-07-31T04:24:12;22.80;;;16.13;;
78893;SDS011;68282;42.698;23.350;2023-07-31T04:26:37;22.27;;;16.33;;
78893;SDS011;68282;42.698;23.350;2023-07-31T04:29:03;21.90;;;15.32;;
78893;SDS011;68282;42.698;23.350;2023-07-31T04:31:28;22.58;;;16.42;;
78893;SDS011;68282;42.698;23.350;2023-07-31T04:33:54;23.80;;;15.98;;
78893;SDS011;68282;42.698;23.350;2023-07-31T04:36:19;25.30;;;16.75;;
78893;SDS011;68282;42.698;23.350;2023-07-31T04:38:45;23.63;;;15.80;;
78893;SDS011;68282;42.698;23.350;2023-07-31T04:41:10;25.13;;;16.35;;
78893;SDS011;68282;42.698;23.350;2023-07-31T04:43:36;23.30;;;15.98;;
78893;SDS011;68282;42.698;23.350;2023-07-31T04:46:04;19.58;;;14.02;;
78893;SDS011;68282;42.698;23.350;2023-07-31T04:48:30;22.80;;;14.68;;
78893;SDS011;68282;42.698;23.350;2023-07-31T04:50:55;22.05;;;15.88;;
78893;SDS011;68282;42.698;23.350;2023-07-31T04:53:20;21.40;;;15.55;;
78893;SDS011;68282;42.698;23.350;2023-07-31T04:55:46;22.08;;;15.95;;
78893;SDS011;68282;42.698;23.350;2023-07-31T04:58:11;23.65;;;16.50;;
78893;SDS011;68282;42.698;23.350;2023-07-31T05:00:37;19.48;;;14.27;;
78893;SDS011;68282;42.698;23.350;2023-07-31T05:03:02;20.58;;;14.98;;
78893;SDS011;68282;42.698;23.350;2023-07-31T05:05:27;21.35;;;15.32;;
78893;SDS011;68282;42.698;23.350;2023-07-31T05:07:53;20.92;;;14.80;;
78893;SDS011;68282;42.698;23.350;2023-07-31T05:10:19;20.20;;;15.10;;
78893;SDS011;68282;42.698;23.350;2023-07-31T05:12:44;18.77;;;14.20;;
78893;SDS011;68282;42.698;23.350;2023-07-31T05:15:09;19.83;;;14.65;;
78893;SDS011;68282;42.698;23.350;2023-07-31T05:17:35;21.42;;;15.18;;
78893;SDS011;68282;42.698;23.350;2023-07-31T05:20:00;21.90;;;16.02;;
78893;SDS011;68282;42.698;23.350;2023-07-31T05:22:26;18.55;;;13.55;;
78893;SDS011;68282;42.698;23.350;2023-07-31T05:24:51;16.70;;;12.85;;
78893;SDS011;68282;42.698;23.350;2023-07-31T05:27:19;16.55;;;13.40;;
78893;SDS011;68282;42.698;23.350;2023-07-31T05:29:44;17.88;;;13.15;;
78893;SDS011;68282;42.698;23.350;2023-07-31T05:32:10;18.70;;;14.48;;
78893;SDS011;68282;42.698;23.350;2023-07-31T05:34:35;17.00;;;12.02;;
78893;SDS011;68282;42.698;23.350;2023-07-31T05:37:01;16.48;;;11.73;;
78893;SDS011;68282;42.698;23.350;2023-07-31T05:39:26;16.02;;;12.25;;
78893;SDS011;68282;42.698;23.350;2023-07-31T05:41:52;17.00;;;11.98;;
78893;SDS011;68282;42.698;23.350;2023-07-31T05:44:17;15.00;;;11.60;;
78893;SDS011;68282;42.698;23.350;2023-07-31T05:46:42;17.50;;;12.05;;
78893;SDS011;68282;42.698;23.350;2023-07-31T05:49:08;14.27;;;11.25;;
78893;SDS011;68282;42.698;23.350;2023-07-31T05:51:33;14.10;;;11.23;;
78893;SDS011;68282;42.698;23.350;2023-07-31T05:53:59;12.68;;;9.68;;
78893;SDS011;68282;42.698;23.350;2023-07-31T05:56:24;13.95;;;10.48;;
78893;SDS011;68282;42.698;23.350;2023-07-31T05:58:51;13.15;;;10.60;;
78893;SDS011;68282;42.698;23.350;2023-07-31T06:01:17;13.10;;;9.90;;
78893;SDS011;68282;42.698;23.350;2023-07-31T06:03:42;10.32;;;8.30;;
78893;SDS011;68282;42.698;23.350;2023-07-31T06:06:08;11.43;;;7.90;;
78893;SDS011;68282;42.698;23.350;2023-07-31T06:08:34;13.07;;;8.20;;
78893;SDS011;68282;42.698;23.350;2023-07-31T06:10:59;11.98;;;7.75;;
78893;SDS011;68282;42.698;23.350;2023-07-31T06:13:25;11.50;;;8.52;;
78893;SDS011;68282;42.698;23.350;2023-07-31T06:15:50;11.20;;;8.15;;
78893;SDS011;68282;42.698;23.350;2023-07-31T06:18:15;9.77;;;7.50;;
78893;SDS011;68282;42.698;23.350;2023-07-31T06:20:41;13.50;;;7.78;;
78893;SDS011;68282;42.698;23.350;2023-07-31T06:23:07;9.35;;;6.97;;
78893;SDS011;68282;42.698;23.350;2023-07-31T06:25:32;9.15;;;6.25;;
78893;SDS011;68282;42.698;23.350;2023-07-31T06:27:58;8.93;;;6.20;;
78893;SDS011;68282;42.698;23.350;2023-07-31T06:30:23;7.25;;;5.70;;
78893;SDS011;68282;42.698;23.350;2023-07-31T06:32:49;7.88;;;6.00;;
78893;SDS011;68282;42.698;23.350;2023-07-31T06:35:14;8.10;;;6.22;;
78893;SDS011;68282;42.698;23.350;2023-07-31T06:37:40;6.38;;;5.50;;
78893;SDS011;68282;42.698;23.350;2023-07-31T06:40:08;7.25;;;5.70;;
78893;SDS011;68282;42.698;23.350;2023-07-31T06:42:34;8.57;;;6.10;;
78893;SDS011;68282;42.698;23.350;2023-07-31T06:45:00;8.18;;;5.88;;
78893;SDS011;68282;42.698;23.350;2023-07-31T06:47:26;6.65;;;5.28;;
78893;SDS011;68282;42.698;23.350;2023-07-31T06:49:51;9.23;;;5.68;;
78893;SDS011;68282;42.698;23.350;2023-07-31T06:52:17;7.65;;;5.90;;
78893;SDS011;68282;42.698;23.350;2023-07-31T06:54:42;6.22;;;5.35;;
78893;SDS011;68282;42.698;23.350;2023-07-31T06:57:08;7.15;;;5.30;;
78893;SDS011;68282;42.698;23.350;2023-07-31T06:59:33;7.30;;;5.63;;
78893;SDS011;68282;42.698;23.350;2023-07-31T07:01:59;8.77;;;4.30;;
78893;SDS011;68282;42.698;23.350;2023-07-31T07:04:24;7.20;;;5.43;;
78893;SDS011;68282;42.698;23.350;2023-07-31T07:06:50;8.90;;;5.78;;
78893;SDS011;68282;42.698;23.350;2023-07-31T07:09:15;5.50;;;4.43;;
78893;SDS011;68282;42.698;23.350;2023-07-31T07:11:40;9.07;;;4.88;;
78893;SDS011;68282;42.698;23.350;2023-07-31T07:14:06;5.10;;;4.38;;
78893;SDS011;68282;42.698;23.350;2023-07-31T07:16:31;6.07;;;4.40;;
78893;SDS011;68282;42.698;23.350;2023-07-31T07:18:57;6.22;;;4.53;;
78893;SDS011;68282;42.698;23.350;2023-07-31T07:21:22;7.18;;;4.65;;
78893;SDS011;68282;42.698;23.350;2023-07-31T07:23:48;6.10;;;4.13;;
78893;SDS011;68282;42.698;23.350;2023-07-31T07:26:13;12.13;;;4.70;;
78893;SDS011;68282;42.698;23.350;2023-07-31T07:28:39;5.75;;;4.78;;
78893;SDS011;68282;42.698;23.350;2023-07-31T07:31:04;7.85;;;4.90;;
78893;SDS011;68282;42.698;23.350;2023-07-31T07:33:30;6.38;;;4.63;;
78893;SDS011;68282;42.698;23.350;2023-07-31T07:35:55;6.40;;;4.40;;
78893;SDS011;68282;42.698;23.350;2023-07-31T07:38:24;7.78;;;5.13;;
78893;SDS011;68282;42.698;23.350;2023-07-31T07:40:50;7.22;;;4.45;;
78893;SDS011;68282;42.698;23.350;2023-07-31T07:43:18;8.43;;;4.20;;
78893;SDS011;68282;42.698;23.350;2023-07-31T07:45:44;10.27;;;4.65;;
78893;SDS011;68282;42.698;23.350;2023-07-31T07:48:10;8.20;;;4.38;;
78893;SDS011;68282;42.698;23.350;2023-07-31T07:50:38;5.82;;;4.22;;
78893;SDS011;68282;42.698;23.350;2023-07-31T07:53:04;4.85;;;3.67;;
78893;SDS011;68282;42.698;23.350;2023-07-31T07:55:29;8.88;;;5.00;;
78893;SDS011;68282;42.698;23.350;2023-07-31T07:57:55;8.93;;;3.90;;
78893;SDS011;68282;42.698;23.350;2023-07-31T08:00:20;4.72;;;3.67;;
78893;SDS011;68282;42.698;23.350;2023-07-31T08:02:46;5.55;;;3.90;;
78893;SDS011;68282;42.698;23.350;2023-07-31T08:05:11;5.07;;;3.88;;
78893;SDS011;68282;42.698;23.350;2023-07-31T08:07:37;8.45;;;4.45;;
78893;SDS011;68282;42.698;23.350;2023-07-31T08:10:02;6.63;;;4.07;;
78893;SDS011;68282;42.698;23.350;2023-07-31T08:12:28;9.10;;;3.90;;
78893;SDS011;68282;42.698;23.350;2023-07-31T08:14:53;7.35;;;4.05;;
78893;SDS011;68282;42.698;23.350;2023-07-31T08:17:18;6.35;;;4.18;;
78893;SDS011;68282;42.698;23.350;2023-07-31T08:19:44;5.20;;;4.10;;
78893;SDS011;68282;42.698;23.350;2023-07-31T08:22:11;7.13;;;3.90;;
78893;SDS011;68282;42.698;23.350;2023-07-31T08:24:36;6.07;;;3.67;;
78893;SDS011;68282;42.698;23.350;2023-07-31T08:27:02;7.32;;;3.60;;
78893;SDS011;68282;42.698;23.350;2023-07-31T08:29:27;5.18;;;4.03;;
78893;SDS011;68282;42.698;23.350;2023-07-31T08:31:53;5.32;;;3.78;;
78893;SDS011;68282;42.698;23.350;2023-07-31T08:34:18;6.60;;;4.10;;
78893;SDS011;68282;42.698;23.350;2023-07-31T08:36:44;5.32;;;4.00;;
78893;SDS011;68282;42.698;23.350;2023-07-31T08:39:09;6.50;;;4.15;;
78893;SDS011;68282;42.698;23.350;2023-07-31T08:41:38;4.70;;;3.40;;
78893;SDS011;68282;42.698;23.350;2023-07-31T08:44:07;7.07;;;3.90;;
78893;SDS011;68282;42.698;23.350;2023-07-31T08:46:33;5.25;;;3.75;;
78893;SDS011;68282;42.698;23.350;2023-07-31T08:48:59;6.60;;;3.67;;
78893;SDS011;68282;42.698;23.350;2023-07-31T08:51:27;4.70;;;2.88;;
78893;SDS011;68282;42.698;23.350;2023-07-31T08:53:53;6.13;;;4.18;;
78893;SDS011;68282;42.698;23.350;2023-07-31T08:56:19;5.82;;;3.95;;
78893;SDS011;68282;42.698;23.350;2023-07-31T08:58:45;4.60;;;3.72;;
78893;SDS011;68282;42.698;23.350;2023-07-31T09:01:12;5.20;;;4.07;;
78893;SDS011;68282;42.698;23.350;2023-07-31T09:03:40;8.35;;;4.35;;
78893;SDS011;68282;42.698;23.350;2023-07-31T09:06:06;5.20;;;3.33;;
78893;SDS011;68282;42.698;23.350;2023-07-31T09:08:32;4.97;;;3.53;;
78893;SDS011;68282;42.698;23.350;2023-07-31T09:11:01;5.25;;;3.30;;
78893;SDS011;68282;42.698;23.350;2023-07-31T09:13:30;4.90;;;3.60;;
78893;SDS011;68282;42.698;23.350;2023-07-31T09:15:58;4.60;;;3.50;;
78893;SDS011;68282;42.698;23.350;2023-07-31T09:18:24;7.13;;;3.47;;
78893;SDS011;68282;42.698;23.350;2023-07-31T09:21:05;8.10;;;3.50;;
78893;SDS011;68282;42.698;23.350;2023-07-31T09:23:44;5.50;;;3.80;;
78893;SDS011;68282;42.698;23.350;2023-07-31T09:26:28;9.18;;;3.35;;
78893;SDS011;68282;42.698;23.350;2023-07-31T09:28:55;5.75;;;3.72;;
78893;SDS011;68282;42.698;23.350;2023-07-31T09:34:06;6.15;;;3.42;;
78893;SDS011;68282;42.698;23.350;2023-07-31T09:36:32;9.35;;;3.88;;
78893;SDS011;68282;42.698;23.350;2023-07-31T09:39:03;4.38;;;3.30;;
78893;SDS011;68282;42.698;23.350;2023-07-31T09:41:30;4.00;;;2.63;;
78893;SDS011;68282;42.698;23.350;2023-07-31T09:43:56;4.90;;;3.53;;
78893;SDS011;68282;42.698;23.350;2023-07-31T09:46:21;4.30;;;3.40;;
78893;SDS011;68282;42.698;23.350;2023-07-31T09:48:47;6.45;;;3.60;;
78893;SDS011;68282;42.698;23.350;2023-07-31T09:51:13;4.80;;;3.30;;
78893;SDS011;68282;42.698;23.350;2023-07-31T09:53:38;4.80;;;2.83;;
78893;SDS011;68282;42.698;23.350;2023-07-31T09:56:04;3.78;;;3.20;;
78893;SDS011;68282;42.698;23.350;2023-07-31T09:58:30;4.57;;;3.22;;
78893;SDS011;68282;42.698;23.350;2023-07-31T10:00:59;4.10;;;3.00;;
78893;SDS011;68282;42.698;23.350;2023-07-31T10:03:27;5.85;;;3.47;;
78893;SDS011;68282;42.698;23.350;2023-07-31T10:05:56;4.70;;;3.05;;
78893;SDS011;68282;42.698;23.350;2023-07-31T10:08:23;6.50;;;3.17;;
78893;SDS011;68282;42.698;23.350;2023-07-31T10:10:55;3.70;;;2.92;;
78893;SDS011;68282;42.698;23.350;2023-07-31T10:13:24;4.93;;;2.70;;
78893;SDS011;68282;42.698;23.350;2023-07-31T10:15:50;4.47;;;2.90;;
78893;SDS011;68282;42.698;23.350;2023-07-31T10:18:16;4.38;;;2.50;;
78893;SDS011;68282;42.698;23.350;2023-07-31T10:20:44;3.72;;;2.83;;
78893;SDS011;68282;42.698;23.350;2023-07-31T10:23:10;3.20;;;2.70;;
78893;SDS011;68282;42.698;23.350;2023-07-31T10:25:36;5.65;;;3.25;;
78893;SDS011;68282;42.698;23.350;2023-07-31T10:28:03;5.68;;;2.80;;
78893;SDS011;68282;42.698;23.350;2023-07-31T10:30:30;4.05;;;2.70;;
78893;SDS011;68282;42.698;23.350;2023-07-31T10:32:59;4.30;;;2.65;;
78893;SDS011;68282;42.698;23.350;2023-07-31T10:35:25;3.30;;;2.45;;
78893;SDS011;68282;42.698;23.350;2023-07-31T10:37:52;4.28;;;2.92;;
78893;SDS011;68282;42.698;23.350;2023-07-31T10:42:53;5.25;;;2.90;;
78893;SDS011;68282;42.698;23.350;2023-07-31T10:48:00;4.97;;;2.25;;
78893;SDS011;68282;42.698;23.350;2023-07-31T10:50:27;3.88;;;2.92;;
78893;SDS011;68282;42.698;23.350;2023-07-31T10:52:54;4.25;;;2.78;;
78893;SDS011;68282;42.698;23.350;2023-07-31T10:55:35;4.50;;;2.80;;
78893;SDS011;68282;42.698;23.350;2023-07-31T10:58:08;3.20;;;2.45;;
78893;SDS011;68282;42.698;23.350;2023-07-31T11:00:41;3.80;;;2.38;;
78893;SDS011;68282;42.698;23.350;2023-07-31T11:05:56;3.80;;;2.78;;
78893;SDS011;68282;42.698;23.350;2023-07-31T11:08:25;3.47;;;2.45;;
78893;SDS011;68282;42.698;23.350;2023-07-31T11:15:51;4.78;;;2.53;;
78893;SDS011;68282;42.698;23.350;2023-07-31T11:18:17;4.13;;;2.33;;
78893;SDS011;68282;42.698;23.350;2023-07-31T11:20:43;4.60;;;2.47;;
78893;SDS011;68282;42.698;23.350;2023-07-31T11:23:09;4.28;;;2.65;;
78893;SDS011;68282;42.698;23.350;2023-07-31T11:25:36;3.60;;;2.33;;
78893;SDS011;68282;42.698;23.350;2023-07-31T11:28:07;3.20;;;2.17;;
78893;SDS011;68282;42.698;23.350;2023-07-31T11:30:36;3.90;;;2.53;;
78893;SDS011;68282;42.698;23.350;2023-07-31T11:33:04;4.05;;;2.92;;
78893;SDS011;68282;42.698;23.350;2023-07-31T11:35:34;4.55;;;2.20;;
78893;SDS011;68282;42.698;23.350;2023-07-31T11:38:01;3.92;;;2.40;;
78893;SDS011;68282;42.698;23.350;2023-07-31T11:40:27;3.83;;;2.50;;
78893;SDS011;68282;42.698;23.350;2023-07-31T11:42:56;3.78;;;2.47;;
78893;SDS011;68282;42.698;23.350;2023-07-31T11:45:26;7.60;;;3.20;;
78893;SDS011;68282;42.698;23.350;2023-07-31T11:47:53;4.05;;;3.00;;
78893;SDS011;68282;42.698;23.350;2023-07-31T11:50:20;4.47;;;3.28;;
78893;SDS011;68282;42.698;23.350;2023-07-31T11:52:46;5.47;;;3.22;;
78893;SDS011;68282;42.698;23.350;2023-07-31T11:55:15;6.90;;;2.72;;
78893;SDS011;68282;42.698;23.350;2023-07-31T11:57:41;4.28;;;2.97;;
78893;SDS011;68282;42.698;23.350;2023-07-31T12:00:09;5.90;;;3.20;;
78893;SDS011;68282;42.698;23.350;2023-07-31T12:02:38;4.00;;;2.85;;
78893;SDS011;68282;42.698;23.350;2023-07-31T12:05:05;4.13;;;2.90;;
78893;SDS011;68282;42.698;23.350;2023-07-31T12:07:48;4.30;;;3.10;;
78893;SDS011;68282;42.698;23.350;2023-07-31T12:10:31;9.00;;;4.35;;
78893;SDS011;68282;42.698;23.350;2023-07-31T12:15:37;5.82;;;3.40;;
78893;SDS011;68282;42.698;23.350;2023-07-31T12:22:56;4.88;;;3.78;;
78893;SDS011;68282;42.698;23.350;2023-07-31T12:25:23;6.18;;;4.30;;
78893;SDS011;68282;42.698;23.350;2023-07-31T12:27:54;7.43;;;4.15;;
78893;SDS011;68282;42.698;23.350;2023-07-31T12:30:29;6.15;;;4.95;;
78893;SDS011;68282;42.698;23.350;2023-07-31T12:32:57;6.97;;;4.40;;
78893;SDS011;68282;42.698;23.350;2023-07-31T12:35:23;6.20;;;4.72;;
78893;SDS011;68282;42.698;23.350;2023-07-31T12:37:48;9.45;;;5.20;;
78893;SDS011;68282;42.698;23.350;2023-07-31T12:40:14;6.85;;;4.63;;
78893;SDS011;68282;42.698;23.350;2023-07-31T12:42:40;6.35;;;4.50;;
78893;SDS011;68282;42.698;23.350;2023-07-31T12:45:06;4.90;;;3.90;;
78893;SDS011;68282;42.698;23.350;2023-07-31T12:47:32;7.35;;;5.30;;
78893;SDS011;68282;42.698;23.350;2023-07-31T12:49:57;6.45;;;5.30;;
78893;SDS011;68282;42.698;23.350;2023-07-31T12:52:23;7.45;;;5.25;;
78893;SDS011;68282;42.698;23.350;2023-07-31T12:54:48;6.88;;;5.25;;
78893;SDS011;68282;42.698;23.350;2023-07-31T12:57:14;7.78;;;5.63;;
78893;SDS011;68282;42.698;23.350;2023-07-31T12:59:39;9.32;;;5.40;;
78893;SDS011;68282;42.698;23.350;2023-07-31T13:02:04;8.73;;;5.80;;
78893;SDS011;68282;42.698;23.350;2023-07-31T13:04:30;7.38;;;5.80;;
78893;SDS011;68282;42.698;23.350;2023-07-31T13:06:55;8.23;;;5.45;;
78893;SDS011;68282;42.698;23.350;2023-07-31T13:09:21;11.65;;;6.28;;
78893;SDS011;68282;42.698;23.350;2023-07-31T13:11:46;7.97;;;5.90;;
78893;SDS011;68282;42.698;23.350;2023-07-31T13:14:12;9.90;;;5.60;;
78893;SDS011;68282;42.698;23.350;2023-07-31T13:16:37;7.78;;;4.72;;
78893;SDS011;68282;42.698;23.350;2023-07-31T13:19:03;6.57;;;5.25;;
78893;SDS011;68282;42.698;23.350;2023-07-31T13:21:28;5.90;;;4.88;;
78893;SDS011;68282;42.698;23.350;2023-07-31T13:23:54;12.32;;;5.35;;
78893;SDS011;68282;42.698;23.350;2023-07-31T13:26:19;6.60;;;4.90;;
78893;SDS011;68282;42.698;23.350;2023-07-31T13:28:45;6.05;;;4.65;;
78893;SDS011;68282;42.698;23.350;2023-07-31T13:31:10;6.50;;;4.60;;
78893;SDS011;68282;42.698;23.350;2023-07-31T13:33:36;8.00;;;5.68;;
78893;SDS011;68282;42.698;23.350;2023-07-31T13:36:02;9.52;;;4.50;;
78893;SDS011;68282;42.698;23.350;2023-07-31T13:38:27;7.55;;;4.85;;
78893;SDS011;68282;42.698;23.350;2023-07-31T13:40:53;9.50;;;5.15;;
78893;SDS011;68282;42.698;23.350;2023-07-31T13:43:18;6.80;;;4.70;;
78893;SDS011;68282;42.698;23.350;2023-07-31T13:45:43;6.72;;;4.90;;
78893;SDS011;68282;42.698;23.350;2023-07-31T13:48:09;6.75;;;4.60;;
78893;SDS011;68282;42.698;23.350;2023-07-31T13:50:35;5.85;;;4.75;;
78893;SDS011;68282;42.698;23.350;2023-07-31T13:53:00;5.72;;;4.97;;
78893;SDS011;68282;42.698;23.350;2023-07-31T13:55:26;5.30;;;4.15;;
78893;SDS011;68282;42.698;23.350;2023-07-31T13:57:51;5.28;;;4.05;;
78893;SDS011;68282;42.698;23.350;2023-07-31T14:00:18;4.85;;;4.00;;
78893;SDS011;68282;42.698;23.350;2023-07-31T14:02:43;5.97;;;4.13;;
78893;SDS011;68282;42.698;23.350;2023-07-31T14:05:09;7.03;;;3.90;;
78893;SDS011;68282;42.698;23.350;2023-07-31T14:07:34;5.50;;;4.07;;
78893;SDS011;68282;42.698;23.350;2023-07-31T14:10:00;5.97;;;4.80;;
78893;SDS011;68282;42.698;23.350;2023-07-31T14:12:25;5.90;;;4.88;;
78893;SDS011;68282;42.698;23.350;2023-07-31T14:14:51;6.22;;;4.57;;
78893;SDS011;68282;42.698;23.350;2023-07-31T14:17:16;6.03;;;4.40;;
78893;SDS011;68282;42.698;23.350;2023-07-31T14:19:42;6.57;;;4.32;;
78893;SDS011;68282;42.698;23.350;2023-07-31T14:22:07;6.65;;;4.75;;
78893;SDS011;68282;42.698;23.350;2023-07-31T14:24:32;4.90;;;4.22;;
78893;SDS011;68282;42.698;23.350;2023-07-31T14:26:59;7.22;;;5.28;;
78893;SDS011;68282;42.698;23.350;2023-07-31T14:29:24;7.05;;;4.72;;
78893;SDS011;68282;42.698;23.350;2023-07-31T14:31:50;4.75;;;3.90;;
78893;SDS011;68282;42.698;23.350;2023-07-31T14:34:15;5.97;;;4.60;;
78893;SDS011;68282;42.698;23.350;2023-07-31T14:36:41;6.75;;;4.65;;
78893;SDS011;68282;42.698;23.350;2023-07-31T14:39:07;8.82;;;4.70;;
78893;SDS011;68282;42.698;23.350;2023-07-31T14:41:32;5.85;;;4.43;;
78893;SDS011;68282;42.698;23.350;2023-07-31T14:43:58;6.18;;;4.95;;
78893;SDS011;68282;42.698;23.350;2023-07-31T14:46:23;5.10;;;4.25;;
78893;SDS011;68282;42.698;23.350;2023-07-31T14:48:49;5.40;;;4.20;;
78893;SDS011;68282;42.698;23.350;2023-07-31T14:51:14;5.43;;;4.18;;
78893;SDS011;68282;42.698;23.350;2023-07-31T14:53:40;5.47;;;3.70;;
78893;SDS011;68282;42.698;23.350;2023-07-31T14:56:05;4.97;;;4.07;;